sensor_id;sensor_type;location;lat;lon;timestamp;pressure;altitude;pressure_sealevel;temperature;humidity
62791;BME280;48830;53.426;10.300;2022-10-31T00:00:55;101805.66;;;10.90;100.00
62791;BME280;48830;53.426;10.300;2022-10-31T00:03:20;101803.75;;;10.83;100.00
62791;BME280;48830;53.426;10.300;2022-10-31T00:05:47;101813.19;;;10.84;100.00
62791;BME280;48830;53.426;10.300;2022-10-31T00:08:14;101809.56;;;10.77;100.00
62791;BME280;48830;53.426;10.300;2022-10-31T00:10:40;101819.88;;;10.77;100.00
62791;BME280;48830;53.426;10.300;2022-10-31T00:13:06;101821.41;;;10.72;100.00
62791;BME280;48830;53.426;10.300;2022-10-31T00:15:36;101821.47;;;10.73;100.00
62791;BME280;48830;53.426;10.300;2022-10-31T00:18:02;101817.81;;;10.67;100.00
62791;BME280;48830;53.426;10.300;2022-10-31T00:20:28;101819.56;;;10.68;100.00
62791;BME280;48830;53.426;10.300;2022-10-31T00:22:57;101828.97;;;10.67;100.00
62791;BME280;48830;53.426;10.300;2022-10-31T00:25:23;101822.91;;;10.65;100.00
62791;BME280;48830;53.426;10.300;2022-10-31T00:27:48;101838.28;;;10.64;100.00
62791;BME280;48830;53.426;10.300;2022-10-31T00:30:13;101828.72;;;10.60;100.00
62791;BME280;48830;53.426;10.300;2022-10-31T00:32:40;101828.78;;;10.61;100.00
62791;BME280;48830;53.426;10.300;2022-10-31T00:35:06;101834.81;;;10.62;100.00
62791;BME280;48830;53.426;10.300;2022-10-31T00:37:31;101828.78;;;10.61;100.00
62791;BME280;48830;53.426;10.300;2022-10-31T00:39:57;101820.06;;;10.56;100.00
62791;BME280;48830;53.426;10.300;2022-10-31T00:42:22;101829.66;;;10.62;100.00
62791;BME280;48830;53.426;10.300;2022-10-31T00:44:48;101832.97;;;10.58;100.00
62791;BME280;48830;53.426;10.300;2022-10-31T00:47:13;101829.31;;;10.51;100.00
62791;BME280;48830;53.426;10.300;2022-10-31T00:49:38;101827.63;;;10.51;100.00
62791;BME280;48830;53.426;10.300;2022-10-31T00:52:04;101831.88;;;10.51;100.00
62791;BME280;48830;53.426;10.300;2022-10-31T00:54:29;101829.28;;;10.49;100.00
62791;BME280;48830;53.426;10.300;2022-10-31T00:56:56;101828.50;;;10.52;100.00
62791;BME280;48830;53.426;10.300;2022-10-31T00:59:22;101833.59;;;10.50;100.00
62791;BME280;48830;53.426;10.300;2022-10-31T01:01:48;101832.81;;;10.53;100.00
62791;BME280;48830;53.426;10.300;2022-10-31T01:04:14;101830.91;;;10.47;100.00
62791;BME280;48830;53.426;10.300;2022-10-31T01:06:40;101829.28;;;10.49;100.00
62791;BME280;48830;53.426;10.300;2022-10-31T01:09:05;101835.28;;;10.50;100.00
62791;BME280;48830;53.426;10.300;2022-10-31T01:11:31;101833.59;;;10.50;100.00
62791;BME280;48830;53.426;10.300;2022-10-31T01:13:56;101837.03;;;10.51;100.00
62791;BME280;48830;53.426;10.300;2022-10-31T01:16:25;101835.22;;;10.48;100.00
62791;BME280;48830;53.426;10.300;2022-10-31T01:18:51;101825.88;;;10.50;100.00
62791;BME280;48830;53.426;10.300;2022-10-31T01:21:23;101828.50;;;10.52;100.00
62791;BME280;48830;53.426;10.300;2022-10-31T01:23:50;101840.38;;;10.48;100.00
62791;BME280;48830;53.426;10.300;2022-10-31T01:26:24;101847.94;;;10.44;100.00
62791;BME280;48830;53.426;10.300;2022-10-31T01:28:55;101845.16;;;10.38;100.00
62791;BME280;48830;53.426;10.300;2022-10-31T01:31:22;101854.38;;;10.31;100.00
62791;BME280;48830;53.426;10.300;2022-10-31T01:33:48;101845.63;;;10.26;100.00
62791;BME280;48830;53.426;10.300;2022-10-31T01:36:20;101850.97;;;10.32;100.00
62791;BME280;48830;53.426;10.300;2022-10-31T01:38:51;101859.31;;;10.25;100.00
62791;BME280;48830;53.426;10.300;2022-10-31T01:41:22;101863.78;;;10.31;100.00
62791;BME280;48830;53.426;10.300;2022-10-31T01:43:53;101864.56;;;10.28;100.00
62791;BME280;48830;53.426;10.300;2022-10-31T01:49:44;101872.09;;;10.23;100.00
62791;BME280;48830;53.426;10.300;2022-10-31T01:52:36;101871.88;;;10.17;100.00
62791;BME280;48830;53.426;10.300;2022-10-31T01:55:08;101878.78;;;10.20;100.00
62791;BME280;48830;53.426;10.300;2022-10-31T01:57:35;101873.28;;;10.09;100.00
62791;BME280;48830;53.426;10.300;2022-10-31T02:00:07;101882.03;;;10.14;100.00
62791;BME280;48830;53.426;10.300;2022-10-31T02:02:39;101887.03;;;10.11;100.00
62791;BME280;48830;53.426;10.300;2022-10-31T02:05:09;101890.56;;;10.13;100.00
62791;BME280;48830;53.426;10.300;2022-10-31T02:10:07;101888.91;;;10.15;100.00
62791;BME280;48830;53.426;10.300;2022-10-31T02:12:33;101890.59;;;10.15;100.00
62791;BME280;48830;53.426;10.300;2022-10-31T02:15:01;101890.66;;;10.16;100.00
62791;BME280;48830;53.426;10.300;2022-10-31T02:17:29;101894.03;;;10.15;100.00
62791;BME280;48830;53.426;10.300;2022-10-31T02:20:18;101899.31;;;10.18;100.00
62791;BME280;48830;53.426;10.300;2022-10-31T02:22:57;101901.03;;;10.19;100.00
62791;BME280;48830;53.426;10.300;2022-10-31T02:33:51;101895.50;;;10.07;100.00
62791;BME280;48830;53.426;10.300;2022-10-31T02:36:34;101900.63;;;10.07;100.00
62791;BME280;48830;53.426;10.300;2022-10-31T02:39:35;101901.34;;;10.03;100.00
62791;BME280;48830;53.426;10.300;2022-10-31T02:44:56;101910.44;;;9.95;100.00
62791;BME280;48830;53.426;10.300;2022-10-31T02:47:28;101906.97;;;9.93;100.00
62791;BME280;48830;53.426;10.300;2022-10-31T02:52:32;101913.75;;;9.91;100.00
62791;BME280;48830;53.426;10.300;2022-10-31T02:55:11;101913.78;;;9.92;100.00
62791;BME280;48830;53.426;10.300;2022-10-31T02:57:38;101912.91;;;9.92;100.00
62791;BME280;48830;53.426;10.300;2022-10-31T03:00:07;101917.28;;;9.94;100.00
62791;BME280;48830;53.426;10.300;2022-10-31T03:05:11;101915.69;;;9.98;100.00
62791;BME280;48830;53.426;10.300;2022-10-31T03:07:54;101929.47;;;10.00;100.00
62791;BME280;48830;53.426;10.300;2022-10-31T03:15:53;101930.13;;;10.18;100.00
62791;BME280;48830;53.426;10.300;2022-10-31T03:18:29;101933.56;;;10.19;100.00
62791;BME280;48830;53.426;10.300;2022-10-31T03:21:05;101939.53;;;10.18;100.00
62791;BME280;48830;53.426;10.300;2022-10-31T03:23:35;101941.06;;;10.13;100.00
62791;BME280;48830;53.426;10.300;2022-10-31T03:26:05;101947.09;;;10.13;100.00
62791;BME280;48830;53.426;10.300;2022-10-31T03:28:36;101944.38;;;10.10;100.00
62791;BME280;48830;53.426;10.300;2022-10-31T03:31:04;101940.06;;;10.09;100.00
62791;BME280;48830;53.426;10.300;2022-10-31T03:33:32;101937.34;;;10.05;100.00
62791;BME280;48830;53.426;10.300;2022-10-31T03:36:02;101945.00;;;10.03;100.00
62791;BME280;48830;53.426;10.300;2022-10-31T03:38:31;101956.97;;;10.03;100.00
62791;BME280;48830;53.426;10.300;2022-10-31T03:41:00;101960.41;;;10.03;100.00
62791;BME280;48830;53.426;10.300;2022-10-31T03:43:30;101961.97;;;9.99;100.00
62791;BME280;48830;53.426;10.300;2022-10-31T03:45:57;101959.38;;;9.98;100.00
62791;BME280;48830;53.426;10.300;2022-10-31T03:48:23;101970.56;;;10.00;100.00
62791;BME280;48830;53.426;10.300;2022-10-31T03:54:04;101973.31;;;10.05;100.00
62791;BME280;48830;53.426;10.300;2022-10-31T03:56:43;101982.00;;;10.08;100.00
62791;BME280;48830;53.426;10.300;2022-10-31T03:59:17;101977.56;;;10.04;100.00
62791;BME280;48830;53.426;10.300;2022-10-31T04:01:49;101989.72;;;10.08;100.00
62791;BME280;48830;53.426;10.300;2022-10-31T04:04:17;101986.19;;;10.06;100.00
62791;BME280;48830;53.426;10.300;2022-10-31T04:06:44;101987.84;;;10.04;100.00
62791;BME280;48830;53.426;10.300;2022-10-31T04:09:11;101988.53;;;10.00;100.00
62791;BME280;48830;53.426;10.300;2022-10-31T04:11:46;101990.19;;;9.98;100.00
62791;BME280;48830;53.426;10.300;2022-10-31T04:14:38;101997.94;;;9.99;100.00
62791;BME280;48830;53.426;10.300;2022-10-31T04:17:09;101995.28;;;9.96;100.00
62791;BME280;48830;53.426;10.300;2022-10-31T04:19:38;102004.56;;;9.93;100.00
62791;BME280;48830;53.426;10.300;2022-10-31T04:22:04;102003.72;;;9.94;100.00
62791;BME280;48830;53.426;10.300;2022-10-31T04:24:30;102006.31;;;9.94;100.00
62791;BME280;48830;53.426;10.300;2022-10-31T04:26:56;101999.41;;;9.93;100.00
62791;BME280;48830;53.426;10.300;2022-10-31T04:29:22;101996.03;;;9.94;100.00
62791;BME280;48830;53.426;10.300;2022-10-31T04:31:47;102001.16;;;9.94;100.00
62791;BME280;48830;53.426;10.300;2022-10-31T04:34:13;102003.63;;;9.91;100.00
62791;BME280;48830;53.426;10.300;2022-10-31T04:36:39;102009.47;;;9.87;100.00
62791;BME280;48830;53.426;10.300;2022-10-31T04:39:04;102006.72;;;9.82;100.00
62791;BME280;48830;53.426;10.300;2022-10-31T04:41:40;102006.78;;;9.84;100.00
62791;BME280;48830;53.426;10.300;2022-10-31T04:44:13;102010.13;;;9.81;100.00
62791;BME280;48830;53.426;10.300;2022-10-31T04:46:38;102012.63;;;9.80;100.00
62791;BME280;48830;53.426;10.300;2022-10-31T04:49:04;102014.38;;;9.81;100.00
62791;BME280;48830;53.426;10.300;2022-10-31T04:51:29;102017.63;;;9.77;100.00
62791;BME280;48830;53.426;10.300;2022-10-31T04:53:55;102015.88;;;9.76;100.00
62791;BME280;48830;53.426;10.300;2022-10-31T04:56:46;102017.78;;;9.80;100.00
62791;BME280;48830;53.426;10.300;2022-10-31T04:59:17;102016.00;;;9.79;100.00
62791;BME280;48830;53.426;10.300;2022-10-31T05:01:48;102016.00;;;9.79;100.00
62791;BME280;48830;53.426;10.300;2022-10-31T05:04:17;102019.50;;;9.81;100.00
62791;BME280;48830;53.426;10.300;2022-10-31T05:06:42;102021.25;;;9.82;100.00
62791;BME280;48830;53.426;10.300;2022-10-31T05:09:08;102010.13;;;9.81;100.00
62791;BME280;48830;53.426;10.300;2022-10-31T05:11:33;102014.47;;;9.84;100.00
62791;BME280;48830;53.426;10.300;2022-10-31T05:14:09;102018.91;;;9.88;100.00
62791;BME280;48830;53.426;10.300;2022-10-31T05:16:53;102024.22;;;9.92;100.00
62791;BME280;48830;53.426;10.300;2022-10-31T05:19:44;102022.66;;;9.96;100.00
62791;BME280;48830;53.426;10.300;2022-10-31T05:22:47;102027.03;;;9.98;100.00
62791;BME280;48830;53.426;10.300;2022-10-31T05:25:13;102019.44;;;10.02;100.00
62791;BME280;48830;53.426;10.300;2022-10-31T05:27:44;102034.09;;;10.04;100.00
62791;BME280;48830;53.426;10.300;2022-10-31T05:30:11;102033.38;;;10.08;100.00
62791;BME280;48830;53.426;10.300;2022-10-31T05:32:42;102028.47;;;10.14;100.00
62791;BME280;48830;53.426;10.300;2022-10-31T05:35:46;102027.88;;;10.21;100.00
62791;BME280;48830;53.426;10.300;2022-10-31T05:38:27;102030.69;;;10.28;100.00
62791;BME280;48830;53.426;10.300;2022-10-31T05:40:55;102021.44;;;10.33;100.00
62791;BME280;48830;53.426;10.300;2022-10-31T05:43:25;102017.44;;;10.39;100.00
62791;BME280;48830;53.426;10.300;2022-10-31T05:45:53;102018.50;;;10.46;100.00
62791;BME280;48830;53.426;10.300;2022-10-31T05:48:38;102009.22;;;10.49;100.00
62791;BME280;48830;53.426;10.300;2022-10-31T05:51:27;102005.88;;;10.52;100.00
62791;BME280;48830;53.426;10.300;2022-10-31T05:53:52;102007.75;;;10.56;100.00
62791;BME280;48830;53.426;10.300;2022-10-31T05:56:18;102019.81;;;10.59;100.00
62791;BME280;48830;53.426;10.300;2022-10-31T05:58:43;102015.66;;;10.62;100.00
62791;BME280;48830;53.426;10.300;2022-10-31T06:01:09;102020.88;;;10.65;100.00
62791;BME280;48830;53.426;10.300;2022-10-31T06:03:34;102020.19;;;10.69;100.00
62791;BME280;48830;53.426;10.300;2022-10-31T06:06:02;102024.63;;;10.73;100.00
62791;BME280;48830;53.426;10.300;2022-10-31T06:08:40;102022.22;;;10.78;100.00
62791;BME280;48830;53.426;10.300;2022-10-31T06:11:11;102022.38;;;10.83;100.00
62791;BME280;48830;53.426;10.300;2022-10-31T06:14:03;102028.63;;;10.91;100.00
62791;BME280;48830;53.426;10.300;2022-10-31T06:16:39;102026.22;;;10.95;100.00
62791;BME280;48830;53.426;10.300;2022-10-31T06:19:24;102034.09;;;11.00;100.00
62791;BME280;48830;53.426;10.300;2022-10-31T06:21:50;102032.63;;;11.08;100.00
62791;BME280;48830;53.426;10.300;2022-10-31T06:24:16;102031.97;;;11.14;100.00
62791;BME280;48830;53.426;10.300;2022-10-31T06:27:00;102029.66;;;11.21;100.00
62791;BME280;48830;53.426;10.300;2022-10-31T06:29:25;102026.84;;;11.41;100.00
62791;BME280;48830;53.426;10.300;2022-10-31T06:32:14;102028.25;;;11.58;100.00
62791;BME280;48830;53.426;10.300;2022-10-31T06:34:43;102045.81;;;11.71;100.00
62791;BME280;48830;53.426;10.300;2022-10-31T06:37:12;102052.09;;;11.79;100.00
62791;BME280;48830;53.426;10.300;2022-10-31T06:39:40;102039.75;;;11.96;100.00
62791;BME280;48830;53.426;10.300;2022-10-31T06:42:08;102043.50;;;12.07;100.00
62791;BME280;48830;53.426;10.300;2022-10-31T06:44:34;102033.38;;;12.14;100.00
62791;BME280;48830;53.426;10.300;2022-10-31T06:47:18;102027.53;;;12.19;100.00
62791;BME280;48830;53.426;10.300;2022-10-31T06:50:00;102023.38;;;12.24;100.00
62791;BME280;48830;53.426;10.300;2022-10-31T06:52:26;102033.81;;;12.29;100.00
62791;BME280;48830;53.426;10.300;2022-10-31T06:54:52;102038.28;;;12.34;100.00
62791;BME280;48830;53.426;10.300;2022-10-31T06:57:17;102039.25;;;12.38;100.00
62791;BME280;48830;53.426;10.300;2022-10-31T06:59:43;102045.44;;;12.45;100.00
62791;BME280;48830;53.426;10.300;2022-10-31T07:02:14;102035.16;;;12.46;100.00
62791;BME280;48830;53.426;10.300;2022-10-31T07:04:41;102043.03;;;12.51;100.00
62791;BME280;48830;53.426;10.300;2022-10-31T07:07:07;102043.16;;;12.55;100.00
62791;BME280;48830;53.426;10.300;2022-10-31T07:09:34;102050.22;;;12.63;100.00
62791;BME280;48830;53.426;10.300;2022-10-31T07:12:02;102043.47;;;12.68;100.00
62791;BME280;48830;53.426;10.300;2022-10-31T07:14:29;102045.34;;;12.73;100.00
62791;BME280;48830;53.426;10.300;2022-10-31T07:16:55;102037.69;;;12.76;100.00
62791;BME280;48830;53.426;10.300;2022-10-31T07:19:30;102039.50;;;12.80;100.00
62791;BME280;48830;53.426;10.300;2022-10-31T07:21:56;102044.75;;;12.83;100.00
62791;BME280;48830;53.426;10.300;2022-10-31T07:24:26;102047.50;;;12.90;100.00
62791;BME280;48830;53.426;10.300;2022-10-31T07:27:20;102050.22;;;12.96;100.00
62791;BME280;48830;53.426;10.300;2022-10-31T07:29:47;102053.81;;;13.01;100.00
62791;BME280;48830;53.426;10.300;2022-10-31T07:32:14;102052.25;;;13.07;100.00
62791;BME280;48830;53.426;10.300;2022-10-31T07:34:46;102053.28;;;13.14;100.00
62791;BME280;48830;53.426;10.300;2022-10-31T07:37:22;102052.47;;;13.15;100.00
62791;BME280;48830;53.426;10.300;2022-10-31T07:39:47;102055.94;;;13.17;100.00
62791;BME280;48830;53.426;10.300;2022-10-31T07:42:13;102062.06;;;13.21;100.00
62791;BME280;48830;53.426;10.300;2022-10-31T07:44:42;102060.50;;;13.26;100.00
62791;BME280;48830;53.426;10.300;2022-10-31T07:47:48;102061.28;;;13.23;100.00
62791;BME280;48830;53.426;10.300;2022-10-31T07:50:32;102065.56;;;13.23;100.00
62791;BME280;48830;53.426;10.300;2022-10-31T07:53:20;102071.53;;;13.20;100.00
62791;BME280;48830;53.426;10.300;2022-10-31T07:56:03;102078.47;;;13.21;100.00
62791;BME280;48830;53.426;10.300;2022-10-31T07:58:29;102075.03;;;13.22;100.00
62791;BME280;48830;53.426;10.300;2022-10-31T08:00:57;102079.41;;;13.25;100.00
62791;BME280;48830;53.426;10.300;2022-10-31T08:03:33;102079.53;;;13.29;100.00
62791;BME280;48830;53.426;10.300;2022-10-31T08:06:17;102078.59;;;13.27;100.00
62791;BME280;48830;53.426;10.300;2022-10-31T08:09:02;102082.19;;;13.32;100.00
62791;BME280;48830;53.426;10.300;2022-10-31T08:11:29;102073.59;;;13.33;100.00
62791;BME280;48830;53.426;10.300;2022-10-31T08:13:54;102078.03;;;13.39;100.00
62791;BME280;48830;53.426;10.300;2022-10-31T08:16:20;102073.69;;;13.38;100.00
62791;BME280;48830;53.426;10.300;2022-10-31T08:18:53;102078.91;;;13.39;100.00
62791;BME280;48830;53.426;10.300;2022-10-31T08:21:21;102079.06;;;13.46;100.00
62791;BME280;48830;53.426;10.300;2022-10-31T08:23:47;102081.09;;;13.59;100.00
62791;BME280;48830;53.426;10.300;2022-10-31T08:26:13;102088.09;;;13.63;100.00
62791;BME280;48830;53.426;10.300;2022-10-31T08:28:39;102088.88;;;13.60;100.00
62791;BME280;48830;53.426;10.300;2022-10-31T08:31:04;102084.03;;;13.73;100.00
62791;BME280;48830;53.426;10.300;2022-10-31T08:33:39;102088.47;;;13.80;100.00
62791;BME280;48830;53.426;10.300;2022-10-31T08:36:17;102094.50;;;13.79;100.00
62791;BME280;48830;53.426;10.300;2022-10-31T08:39:04;102102.97;;;13.73;100.00
62791;BME280;48830;53.426;10.300;2022-10-31T08:41:30;102089.25;;;13.76;100.00
62791;BME280;48830;53.426;10.300;2022-10-31T08:43:57;102090.16;;;13.78;100.00
62791;BME280;48830;53.426;10.300;2022-10-31T08:46:22;102098.84;;;13.81;100.00
62791;BME280;48830;53.426;10.300;2022-10-31T08:48:48;102110.91;;;13.82;100.00
62791;BME280;48830;53.426;10.300;2022-10-31T08:51:15;102100.69;;;13.87;100.00
62791;BME280;48830;53.426;10.300;2022-10-31T08:53:41;102100.81;;;13.93;100.00
62791;BME280;48830;53.426;10.300;2022-10-31T08:56:35;102099.19;;;13.97;100.00
62791;BME280;48830;53.426;10.300;2022-10-31T08:59:04;102101.13;;;14.05;100.00
62791;BME280;48830;53.426;10.300;2022-10-31T09:01:53;102093.59;;;14.16;100.00
62791;BME280;48830;53.426;10.300;2022-10-31T09:04:19;102094.69;;;14.27;100.00
62791;BME280;48830;53.426;10.300;2022-10-31T09:06:44;102104.72;;;14.12;100.00
62791;BME280;48830;53.426;10.300;2022-10-31T09:09:10;102118.47;;;14.11;100.00
62791;BME280;48830;53.426;10.300;2022-10-31T09:11:36;102115.06;;;14.12;100.00
62791;BME280;48830;53.426;10.300;2022-10-31T09:14:24;102117.69;;;14.15;100.00
62791;BME280;48830;53.426;10.300;2022-10-31T09:17:09;102104.06;;;14.22;100.00
62791;BME280;48830;53.426;10.300;2022-10-31T09:20:03;102108.53;;;14.31;100.00
62791;BME280;48830;53.426;10.300;2022-10-31T09:22:32;102101.72;;;14.34;100.00
62791;BME280;48830;53.426;10.300;2022-10-31T09:24:58;102108.72;;;14.38;100.00
62791;BME280;48830;53.426;10.300;2022-10-31T09:27:24;102112.22;;;14.42;100.00
62791;BME280;48830;53.426;10.300;2022-10-31T09:29:53;102096.75;;;14.43;100.00
62791;BME280;48830;53.426;10.300;2022-10-31T09:32:19;102104.25;;;14.31;100.00
62791;BME280;48830;53.426;10.300;2022-10-31T09:34:45;102105.97;;;14.31;100.00
62791;BME280;48830;53.426;10.300;2022-10-31T09:37:15;102110.38;;;14.36;100.00
62791;BME280;48830;53.426;10.300;2022-10-31T09:39:40;102109.63;;;14.40;100.00
62791;BME280;48830;53.426;10.300;2022-10-31T09:45:33;102116.50;;;14.38;100.00
62791;BME280;48830;53.426;10.300;2022-10-31T09:51:37;102111.13;;;14.31;100.00
62791;BME280;48830;53.426;10.300;2022-10-31T09:54:27;102124.13;;;14.32;100.00
62791;BME280;48830;53.426;10.300;2022-10-31T09:56:56;102119.69;;;14.27;100.00
62791;BME280;48830;53.426;10.300;2022-10-31T09:59:38;102121.53;;;14.32;100.00
62791;BME280;48830;53.426;10.300;2022-10-31T10:02:37;102124.00;;;14.26;100.00
62791;BME280;48830;53.426;10.300;2022-10-31T10:05:21;102124.00;;;14.26;100.00
62791;BME280;48830;53.426;10.300;2022-10-31T10:08:10;102129.31;;;14.34;100.00
62791;BME280;48830;53.426;10.300;2022-10-31T10:11:12;102131.16;;;14.39;100.00
62791;BME280;48830;53.426;10.300;2022-10-31T10:25:22;102139.91;;;14.46;100.00
62791;BME280;48830;53.426;10.300;2022-10-31T10:30:50;102137.56;;;14.55;100.00
62791;BME280;48830;53.426;10.300;2022-10-31T10:33:27;102133.16;;;14.51;100.00
62791;BME280;48830;53.426;10.300;2022-10-31T10:35:57;102133.16;;;14.51;100.00
62791;BME280;48830;53.426;10.300;2022-10-31T10:38:28;102132.38;;;14.55;100.00
62791;BME280;48830;53.426;10.300;2022-10-31T10:41:01;102123.84;;;14.59;100.00
62791;BME280;48830;53.426;10.300;2022-10-31T10:43:35;102123.88;;;14.61;100.00
62791;BME280;48830;53.426;10.300;2022-10-31T10:51:59;102115.34;;;14.65;100.00
62791;BME280;48830;53.426;10.300;2022-10-31T11:00:22;102110.38;;;14.77;100.00
62791;BME280;48830;53.426;10.300;2022-10-31T11:02:48;102101.84;;;14.81;100.00
62791;BME280;48830;53.426;10.300;2022-10-31T11:07:53;102110.50;;;14.83;100.00
62791;BME280;48830;53.426;10.300;2022-10-31T11:10:19;102120.75;;;14.79;100.00
62791;BME280;48830;53.426;10.300;2022-10-31T11:15:39;102126.00;;;14.80;100.00
62791;BME280;48830;53.426;10.300;2022-10-31T11:18:20;102116.59;;;14.85;100.00
62791;BME280;48830;53.426;10.300;2022-10-31T11:20:52;102123.56;;;14.89;100.00
62791;BME280;48830;53.426;10.300;2022-10-31T11:23:19;102120.94;;;14.88;100.00
62791;BME280;48830;53.426;10.300;2022-10-31T11:25:58;102109.72;;;14.87;100.00
62791;BME280;48830;53.426;10.300;2022-10-31T11:28:24;102090.84;;;14.93;100.00
62791;BME280;48830;53.426;10.300;2022-10-31T11:30:53;102098.53;;;14.90;100.00
62791;BME280;48830;53.426;10.300;2022-10-31T11:35:52;102099.56;;;14.98;100.00
62791;BME280;48830;53.426;10.300;2022-10-31T11:38:20;102097.09;;;15.06;100.00
62791;BME280;48830;53.426;10.300;2022-10-31T11:40:59;102096.38;;;15.13;100.00
62791;BME280;48830;53.426;10.300;2022-10-31T11:43:28;102101.69;;;15.22;100.00
62791;BME280;48830;53.426;10.300;2022-10-31T11:45:54;102097.19;;;15.10;100.00
62791;BME280;48830;53.426;10.300;2022-10-31T11:48:22;102106.00;;;15.20;100.00
62791;BME280;48830;53.426;10.300;2022-10-31T11:50:56;102101.00;;;15.31;100.00
62791;BME280;48830;53.426;10.300;2022-10-31T11:53:28;102098.66;;;15.44;100.00
62791;BME280;48830;53.426;10.300;2022-10-31T11:56:21;102094.28;;;15.43;100.00
62791;BME280;48830;53.426;10.300;2022-10-31T11:59:04;102102.13;;;15.46;100.00
62791;BME280;48830;53.426;10.300;2022-10-31T12:01:32;102092.63;;;15.47;100.00
62791;BME280;48830;53.426;10.300;2022-10-31T12:04:07;102085.22;;;15.67;100.00
62791;BME280;48830;53.426;10.300;2022-10-31T12:06:41;102086.16;;;15.73;100.00
62791;BME280;48830;53.426;10.300;2022-10-31T12:09:22;102085.41;;;15.81;100.00
62791;BME280;48830;53.426;10.300;2022-10-31T12:12:18;102084.44;;;15.74;100.00
62791;BME280;48830;53.426;10.300;2022-10-31T12:15:02;102085.16;;;15.64;100.00
62791;BME280;48830;53.426;10.300;2022-10-31T12:17:38;102082.50;;;15.62;100.00
62791;BME280;48830;53.426;10.300;2022-10-31T12:23:16;102084.97;;;15.55;100.00
62791;BME280;48830;53.426;10.300;2022-10-31T12:25:57;102085.03;;;15.58;100.00
62791;BME280;48830;53.426;10.300;2022-10-31T12:28:51;102072.84;;;15.54;100.00
62791;BME280;48830;53.426;10.300;2022-10-31T12:31:32;102076.38;;;15.57;100.00
62791;BME280;48830;53.426;10.300;2022-10-31T12:41:47;102066.47;;;15.86;99.83
62791;BME280;48830;53.426;10.300;2022-10-31T12:55:55;102070.13;;;16.00;97.40
62791;BME280;48830;53.426;10.300;2022-10-31T12:58:35;102062.97;;;15.84;97.84
62791;BME280;48830;53.426;10.300;2022-10-31T13:01:08;102056.91;;;15.82;97.96
62791;BME280;48830;53.426;10.300;2022-10-31T13:04:02;102055.94;;;15.74;98.21
62791;BME280;48830;53.426;10.300;2022-10-31T13:06:50;102050.97;;;15.91;97.83
62791;BME280;48830;53.426;10.300;2022-10-31T13:09:36;102047.13;;;16.30;95.83
62791;BME280;48830;53.426;10.300;2022-10-31T13:12:08;102039.59;;;16.49;93.68
62791;BME280;48830;53.426;10.300;2022-10-31T13:14:42;102042.66;;;16.94;91.54
62791;BME280;48830;53.426;10.300;2022-10-31T13:18:02;102031.16;;;16.70;91.35
62791;BME280;48830;53.426;10.300;2022-10-31T13:20:22;102038.47;;;16.27;92.99
62791;BME280;48830;53.426;10.300;2022-10-31T13:22:53;102032.22;;;16.12;95.04
62791;BME280;48830;53.426;10.300;2022-10-31T13:25:25;102028.78;;;16.13;95.39
62791;BME280;48830;53.426;10.300;2022-10-31T13:27:59;102023.03;;;16.40;93.87
62791;BME280;48830;53.426;10.300;2022-10-31T13:30:29;102017.72;;;17.13;91.77
62791;BME280;48830;53.426;10.300;2022-10-31T13:44:20;102001.16;;;19.12;79.29
62791;BME280;48830;53.426;10.300;2022-10-31T13:46:49;101999.41;;;19.12;79.05
62791;BME280;48830;53.426;10.300;2022-10-31T13:51:50;101997.69;;;19.02;79.28
62791;BME280;48830;53.426;10.300;2022-10-31T13:54:32;101999.41;;;19.19;78.77
62791;BME280;48830;53.426;10.300;2022-10-31T13:56:58;101997.69;;;19.11;78.55
62791;BME280;48830;53.426;10.300;2022-10-31T13:59:25;101995.94;;;19.21;78.32
62791;BME280;48830;53.426;10.300;2022-10-31T14:01:57;101980.28;;;19.38;77.63
62791;BME280;48830;53.426;10.300;2022-10-31T14:07:14;101977.72;;;18.92;78.53
62791;BME280;48830;53.426;10.300;2022-10-31T14:09:52;101975.97;;;19.11;78.33
62791;BME280;48830;53.426;10.300;2022-10-31T14:12:34;101975.97;;;19.08;78.69
62791;BME280;48830;53.426;10.300;2022-10-31T14:17:57;101964.69;;;19.01;79.29
62791;BME280;48830;53.426;10.300;2022-10-31T14:20:34;101960.34;;;18.80;79.03
62791;BME280;48830;53.426;10.300;2022-10-31T14:26:18;101945.56;;;19.08;78.51
62791;BME280;48830;53.426;10.300;2022-10-31T14:28:44;101943.81;;;19.23;77.40
62791;BME280;48830;53.426;10.300;2022-10-31T14:31:30;101945.56;;;19.08;76.89
62791;BME280;48830;53.426;10.300;2022-10-31T14:34:02;101942.97;;;19.11;77.16
62791;BME280;48830;53.426;10.300;2022-10-31T14:52:47;101907.81;;;17.29;85.99
62791;BME280;48830;53.426;10.300;2022-10-31T14:55:14;101898.22;;;17.17;86.89
62791;BME280;48830;53.426;10.300;2022-10-31T14:58:05;101895.53;;;17.03;87.35
62791;BME280;48830;53.426;10.300;2022-10-31T15:00:32;101895.44;;;16.85;89.07
62791;BME280;48830;53.426;10.300;2022-10-31T15:03:33;101891.81;;;16.69;89.81
62791;BME280;48830;53.426;10.300;2022-10-31T15:06:10;101887.31;;;16.48;91.07
62791;BME280;48830;53.426;10.300;2022-10-31T15:11:26;101868.88;;;16.19;93.15
62791;BME280;48830;53.426;10.300;2022-10-31T15:13:56;101873.06;;;16.04;94.01
62791;BME280;48830;53.426;10.300;2022-10-31T15:16:24;101869.38;;;15.83;95.33